createdAt,value
2019-02-23T00:02:13.297Z,6.63
2019-02-23T00:04:53.668Z,9.13
2019-02-23T00:07:34.846Z,10.10
2019-02-23T00:10:15.759Z,9.70
2019-02-23T00:12:56.698Z,10.73
2019-02-23T00:15:37.978Z,9.07
2019-02-23T00:18:18.868Z,10.73
2019-02-23T00:21:00.107Z,8.27
2019-02-23T00:23:40.722Z,8.00
2019-02-23T00:26:21.851Z,7.77
2019-02-23T00:29:02.755Z,8.20
2019-02-23T00:31:43.522Z,8.87
2019-02-23T00:34:24.583Z,9.10
2019-02-23T00:37:05.151Z,8.80
2019-02-23T00:39:45.752Z,10.13
2019-02-23T00:42:26.534Z,18.37
2019-02-23T00:45:07.279Z,17.00
2019-02-23T00:47:48.503Z,12.47
2019-02-23T00:50:29.148Z,11.37
2019-02-23T00:53:09.552Z,16.07
2019-02-23T00:55:49.851Z,19.20
2019-02-23T00:58:30.618Z,15.83
2019-02-23T01:01:11.973Z,19.23
2019-02-23T01:03:52.501Z,16.63
2019-02-23T01:06:33.705Z,16.70
2019-02-23T01:09:14.450Z,14.87
2019-02-23T01:11:55.232Z,17.53
2019-02-23T01:14:35.892Z,17.03
2019-02-23T01:17:16.731Z,15.63
2019-02-23T01:19:57.672Z,16.23
2019-02-23T01:22:38.581Z,16.37
2019-02-23T01:27:58.346Z,15.70
2019-02-23T01:30:38.758Z,14.20
2019-02-23T01:35:58.630Z,14.40
2019-02-23T01:38:39.668Z,14.00
2019-02-23T01:41:20.663Z,10.77
2019-02-23T01:44:01.348Z,11.43
2019-02-23T01:46:42.158Z,10.67
2019-02-23T01:49:23.063Z,10.23
2019-02-23T01:52:03.914Z,9.27
2019-02-23T01:57:23.620Z,9.47
2019-02-23T02:02:48.168Z,9.53
2019-02-23T02:05:28.606Z,9.60
2019-02-23T02:08:09.489Z,8.93
2019-02-23T02:10:50.219Z,9.20
2019-02-23T02:13:30.808Z,10.03
2019-02-23T02:16:11.531Z,9.17
2019-02-23T02:18:52.094Z,8.63
2019-02-23T02:21:33.235Z,10.00
2019-02-23T02:24:14.041Z,9.50
2019-02-23T02:26:54.447Z,8.90
2019-02-23T02:29:34.067Z,8.17
2019-02-23T02:32:15.290Z,6.63
2019-02-23T02:34:56.158Z,6.60
2019-02-23T02:37:36.872Z,7.93
2019-02-23T02:40:17.273Z,7.40
2019-02-23T02:42:58.292Z,9.00
2019-02-23T02:45:39.216Z,10.30
2019-02-23T02:48:20.001Z,7.63
2019-02-23T02:51:00.620Z,8.20
2019-02-23T02:53:41.511Z,6.17
2019-02-23T02:56:22.413Z,6.50
2019-02-23T02:59:03.221Z,5.97
2019-02-23T03:01:44.214Z,7.87
2019-02-23T03:04:24.743Z,8.83
2019-02-23T03:07:05.983Z,6.10
2019-02-23T03:09:46.882Z,7.10
2019-02-23T03:12:27.827Z,6.80
2019-02-23T03:15:08.656Z,7.40
2019-02-23T03:17:49.791Z,7.30
2019-02-23T03:20:36.678Z,6.60
2019-02-23T03:23:12.871Z,6.73
2019-02-23T03:25:53.783Z,6.53
2019-02-23T03:28:34.761Z,6.60
2019-02-23T03:31:15.932Z,5.73
2019-02-23T03:33:56.762Z,5.77
2019-02-23T03:36:38.065Z,6.53
2019-02-23T03:39:18.638Z,8.10
2019-02-23T03:41:59.861Z,7.53
2019-02-23T03:44:40.665Z,7.83
2019-02-23T03:47:21.480Z,6.73
2019-02-23T03:50:02.671Z,6.10
2019-02-23T03:52:43.416Z,9.20
2019-02-23T03:55:24.432Z,7.73
2019-02-23T03:58:05.775Z,8.40
2019-02-23T04:00:46.754Z,7.70
2019-02-23T04:03:27.206Z,8.67
2019-02-23T04:06:08.600Z,7.57
2019-02-23T04:08:49.422Z,7.70
2019-02-23T04:11:30.268Z,8.73
2019-02-23T04:17:07.228Z,10.40
2019-02-23T04:19:47.634Z,8.90
2019-02-23T04:22:28.175Z,10.97
2019-02-23T04:25:09.570Z,10.37
2019-02-23T04:27:50.433Z,9.87
2019-02-23T04:30:31.449Z,10.03
2019-02-23T04:33:12.157Z,8.63
2019-02-23T04:35:52.845Z,9.50
2019-02-23T04:38:33.981Z,8.57
2019-02-23T04:41:14.831Z,7.73
2019-02-23T04:43:55.675Z,9.33
2019-02-23T04:46:36.572Z,9.53
2019-02-23T04:49:16.365Z,10.00
2019-02-23T04:51:57.593Z,9.70
2019-02-23T04:54:38.650Z,10.30
2019-02-23T04:57:19.402Z,8.50
2019-02-23T05:00:00.401Z,8.80
2019-02-23T05:02:41.059Z,6.93
2019-02-23T05:05:22.298Z,7.30
2019-02-23T05:08:02.838Z,7.53
2019-02-23T05:13:22.511Z,8.50
2019-02-23T05:16:02.245Z,6.90
2019-02-23T05:18:42.647Z,8.30
2019-02-23T05:21:26.872Z,7.50
2019-02-23T05:24:06.001Z,9.13
2019-02-23T05:26:46.575Z,7.37
2019-02-23T05:29:27.339Z,11.23
2019-02-23T05:32:08.078Z,9.93
2019-02-23T05:34:48.814Z,10.00
2019-02-23T05:37:29.728Z,10.87
2019-02-23T05:40:10.444Z,10.77
2019-02-23T05:43:00.360Z,9.97
2019-02-23T05:45:34.199Z,8.80
2019-02-23T05:48:20.003Z,10.27
2019-02-23T05:51:00.954Z,9.27
2019-02-23T05:53:41.687Z,10.17
2019-02-23T05:56:22.451Z,10.60
2019-02-23T05:59:03.151Z,7.47
2019-02-23T06:01:44.271Z,10.10
2019-02-23T06:04:24.962Z,9.87
2019-02-23T06:07:05.756Z,9.30
2019-02-23T06:09:46.220Z,12.77
2019-02-23T06:12:26.707Z,11.40
2019-02-23T06:15:07.614Z,11.83
2019-02-23T06:17:48.475Z,10.67
2019-02-23T06:20:29.561Z,11.90
2019-02-23T06:23:10.202Z,8.27
2019-02-23T06:25:51.006Z,8.17
2019-02-23T06:28:32.021Z,7.00
2019-02-23T06:31:12.742Z,11.40
2019-02-23T06:33:53.820Z,13.53
2019-02-23T06:36:34.340Z,9.10
2019-02-23T06:39:15.362Z,9.90
2019-02-23T06:41:55.871Z,10.60
2019-02-23T06:44:36.937Z,12.37
2019-02-23T06:47:17.714Z,15.13
2019-02-23T06:49:58.671Z,15.40
2019-02-23T06:52:39.705Z,16.70
2019-02-23T06:55:20.626Z,12.97
2019-02-23T06:58:01.263Z,11.47
2019-02-23T07:00:41.725Z,9.47
2019-02-23T07:03:22.806Z,9.37
2019-02-23T07:06:04.113Z,10.10
2019-02-23T07:08:44.773Z,14.80
2019-02-23T07:11:25.390Z,13.80
2019-02-23T07:14:06.196Z,16.47
2019-02-23T07:16:47.571Z,12.50
2019-02-23T07:19:28.838Z,11.63
2019-02-23T07:24:48.338Z,10.90
2019-02-23T07:27:29.059Z,12.57
2019-02-23T07:30:09.598Z,12.80
2019-02-23T07:32:50.443Z,12.90
2019-02-23T07:35:31.228Z,14.67
2019-02-23T07:38:11.917Z,15.13
2019-02-23T07:40:52.708Z,13.73
2019-02-23T07:43:33.367Z,12.00
2019-02-23T07:46:14.115Z,11.77
2019-02-23T07:48:54.961Z,12.43
2019-02-23T07:51:35.690Z,13.40
2019-02-23T07:54:16.582Z,11.87
2019-02-23T07:56:57.352Z,12.53
2019-02-23T07:59:38.024Z,13.10
2019-02-23T08:05:03.671Z,14.47
2019-02-23T08:07:44.631Z,12.93
2019-02-23T08:10:25.239Z,13.70
2019-02-23T08:13:05.931Z,12.97
2019-02-23T08:15:46.600Z,13.37
2019-02-23T08:18:27.785Z,14.30
2019-02-23T08:21:08.672Z,12.73
2019-02-23T08:23:49.328Z,13.30
2019-02-23T08:26:30.245Z,12.83
2019-02-23T08:29:10.843Z,12.50
2019-02-23T08:31:51.639Z,12.23
2019-02-23T08:34:31.360Z,12.30
2019-02-23T08:37:10.851Z,12.00
2019-02-23T08:39:52.051Z,12.40
2019-02-23T08:42:32.726Z,11.87
2019-02-23T08:45:13.665Z,11.97
2019-02-23T08:47:56.363Z,10.37
2019-02-23T08:50:37.392Z,11.97
2019-02-23T08:53:18.173Z,12.20
2019-02-23T08:55:59.227Z,12.83
2019-02-23T08:58:39.913Z,13.60
2019-02-23T09:01:20.514Z,13.63
2019-02-23T09:04:01.537Z,13.90
2019-02-23T09:06:42.335Z,13.07
2019-02-23T09:09:23.058Z,12.87
2019-02-23T09:12:02.768Z,12.73
2019-02-23T09:17:28.477Z,12.87
2019-02-23T09:20:09.290Z,13.33
2019-02-23T09:22:59.738Z,12.00
2019-02-23T09:25:32.789Z,12.30
2019-02-23T09:28:13.537Z,12.30
2019-02-23T09:30:54.333Z,13.43
2019-02-23T09:33:35.007Z,10.87
2019-02-23T09:36:15.805Z,10.97
2019-02-23T09:38:57.045Z,12.20
2019-02-23T09:41:38.035Z,12.30
2019-02-23T09:44:18.802Z,12.90
2019-02-23T09:46:59.656Z,12.33
2019-02-23T09:49:40.399Z,12.80
2019-02-23T09:52:21.028Z,12.77
2019-02-23T09:55:02.186Z,13.00
2019-02-23T09:57:42.897Z,12.47
2019-02-23T10:00:23.731Z,11.30
2019-02-23T10:03:04.568Z,12.20
2019-02-23T10:05:45.490Z,11.33
2019-02-23T10:08:26.339Z,13.60
2019-02-23T10:11:07.171Z,11.67
2019-02-23T10:13:48.008Z,13.43
2019-02-23T10:16:29.203Z,11.40
2019-02-23T10:19:10.023Z,13.27
2019-02-23T10:21:50.682Z,11.63
2019-02-23T10:24:31.633Z,12.37
2019-02-23T10:27:12.391Z,12.50
2019-02-23T10:29:53.152Z,15.20
2019-02-23T10:32:34.415Z,13.50
2019-02-23T10:35:15.767Z,12.70
2019-02-23T10:37:56.183Z,11.57
2019-02-23T10:40:37.193Z,11.00
2019-02-23T10:43:17.691Z,12.40
2019-02-23T10:45:58.912Z,12.17
2019-02-23T10:48:39.306Z,11.87
2019-02-23T10:51:19.855Z,11.10
2019-02-23T10:54:00.649Z,10.83
2019-02-23T10:56:41.464Z,12.30
2019-02-23T11:02:06.954Z,11.07
2019-02-23T11:04:48.067Z,10.27
2019-02-23T11:07:29.528Z,11.23
2019-02-23T11:10:10.095Z,10.53
2019-02-23T11:12:49.812Z,8.73
2019-02-23T11:18:15.265Z,10.50
2019-02-23T11:20:55.823Z,9.93
2019-02-23T11:23:43.785Z,9.73
2019-02-23T11:26:19.591Z,9.10
2019-02-23T11:29:00.554Z,10.67
2019-02-23T11:31:41.613Z,8.77
2019-02-23T11:34:10.901Z,9.90
2019-02-23T11:36:59.074Z,9.73
2019-02-23T11:39:40.343Z,10.20
2019-02-23T11:42:20.208Z,9.53
2019-02-23T11:45:01.426Z,9.30
2019-02-23T11:47:41.983Z,9.77
2019-02-23T11:50:22.776Z,10.90
2019-02-23T11:53:03.660Z,8.73
2019-02-23T11:55:44.293Z,9.07
2019-02-23T11:58:25.299Z,7.43
2019-02-23T12:01:06.170Z,7.10
2019-02-23T12:03:46.744Z,9.80
2019-02-23T12:06:29.711Z,7.97
2019-02-23T12:10:45.655Z,7.93
2019-02-23T12:13:26.389Z,6.27
2019-02-23T12:16:06.848Z,8.60
2019-02-23T12:18:47.483Z,6.93
2019-02-23T12:21:27.915Z,6.87
2019-02-23T12:24:09.133Z,6.33
2019-02-23T12:26:49.767Z,7.03
2019-02-23T12:29:30.563Z,7.30
2019-02-23T12:32:11.289Z,8.63
2019-02-23T12:34:52.150Z,6.80
2019-02-23T12:37:32.600Z,6.20
2019-02-23T12:40:13.789Z,5.20
2019-02-23T12:42:54.584Z,5.10
2019-02-23T12:48:19.480Z,4.60
2019-02-23T12:51:00.299Z,4.67
2019-02-23T12:53:41.619Z,5.10
2019-02-23T12:56:22.614Z,5.13
2019-02-23T12:59:03.424Z,5.80
2019-02-23T13:01:44.328Z,4.80
2019-02-23T13:04:25.299Z,5.33
2019-02-23T13:09:45.116Z,5.07
2019-02-23T13:12:26.499Z,5.20
2019-02-23T13:15:07.117Z,4.50
2019-02-23T13:17:47.739Z,4.50
2019-02-23T13:20:41.890Z,4.43
2019-02-23T13:23:35.472Z,4.63
2019-02-23T13:26:16.705Z,4.10
2019-02-23T13:28:57.415Z,4.90
2019-02-23T13:31:38.806Z,4.80
2019-02-23T13:34:19.253Z,4.47
2019-02-23T13:37:01.743Z,5.70
2019-02-23T13:39:42.719Z,5.73
2019-02-23T13:42:23.178Z,4.80
2019-02-23T13:45:03.963Z,4.93
2019-02-23T13:47:45.019Z,4.83
2019-02-23T13:50:25.840Z,4.70
2019-02-23T13:53:06.619Z,5.00
2019-02-23T13:55:47.531Z,4.67
2019-02-23T13:58:54.828Z,4.90
2019-02-23T14:01:36.211Z,4.63
2019-02-23T14:04:17.027Z,4.20
2019-02-23T14:06:58.343Z,3.90
2019-02-23T14:09:39.579Z,4.80
2019-02-23T14:12:20.426Z,4.50
2019-02-23T14:15:01.763Z,4.20
2019-02-23T14:18:09.074Z,4.70
2019-02-23T14:20:49.925Z,4.23
2019-02-23T14:23:30.948Z,4.80
2019-02-23T14:26:11.501Z,4.03
2019-02-23T14:28:52.280Z,4.53
2019-02-23T14:31:33.046Z,4.33
2019-02-23T14:34:14.294Z,5.03
2019-02-23T14:36:54.981Z,4.00
2019-02-23T14:39:35.857Z,4.20
2019-02-23T14:42:16.682Z,4.73
2019-02-23T14:44:57.422Z,4.40
2019-02-23T14:47:38.106Z,4.50
2019-02-23T14:50:18.935Z,4.63
2019-02-23T14:52:59.637Z,4.97
2019-02-23T14:55:40.603Z,5.80
2019-02-23T14:58:21.686Z,5.50
2019-02-23T15:01:03.057Z,4.23
2019-02-23T15:03:43.518Z,4.73
2019-02-23T15:06:24.874Z,4.73
2019-02-23T15:11:44.692Z,4.60
2019-02-23T15:14:26.073Z,5.13
2019-02-23T15:17:07.247Z,4.67
2019-02-23T15:19:48.640Z,4.70
2019-02-23T15:22:30.095Z,4.50
2019-02-23T15:25:13.447Z,4.20
2019-02-23T15:27:57.203Z,4.07
2019-02-23T15:30:37.755Z,4.63
2019-02-23T15:33:18.975Z,5.43
2019-02-23T15:35:59.537Z,5.00
2019-02-23T15:38:40.778Z,5.53
2019-02-23T15:41:21.450Z,4.90
2019-02-23T15:44:03.037Z,5.70
2019-02-23T15:46:43.810Z,7.17
2019-02-23T15:49:23.412Z,7.20
2019-02-23T15:52:03.977Z,6.60
2019-02-23T15:54:45.364Z,6.23
2019-02-23T15:57:26.224Z,6.23
2019-02-23T16:00:07.521Z,6.53
2019-02-23T16:02:48.671Z,5.50
2019-02-23T16:05:30.012Z,6.47
2019-02-23T16:08:10.820Z,8.03
2019-02-23T16:10:51.797Z,7.00
2019-02-23T16:13:32.778Z,6.80
2019-02-23T16:16:14.036Z,6.40
2019-02-23T16:18:55.768Z,7.40
2019-02-23T16:21:37.487Z,11.07
2019-02-23T16:24:18.254Z,8.13
2019-02-23T16:26:58.853Z,6.83
2019-02-23T16:29:39.351Z,8.17
2019-02-23T16:32:19.905Z,10.57
2019-02-23T16:35:01.328Z,14.23
2019-02-23T16:37:42.097Z,9.00
2019-02-23T16:40:23.467Z,6.93
2019-02-23T16:43:03.930Z,6.80
2019-02-23T16:45:44.522Z,8.37
2019-02-23T16:48:25.867Z,10.40
2019-02-23T16:51:06.820Z,7.90
2019-02-23T16:53:49.156Z,7.00
2019-02-23T16:56:30.510Z,6.73
2019-02-23T16:59:11.194Z,7.23
2019-02-23T17:01:51.716Z,9.10
2019-02-23T17:04:31.473Z,13.67
2019-02-23T17:07:11.915Z,15.07
2019-02-23T17:09:52.535Z,9.27
2019-02-23T17:12:33.153Z,13.53
2019-02-23T17:15:13.794Z,10.23
2019-02-23T17:17:54.728Z,14.47
2019-02-23T17:20:35.317Z,5.87
2019-02-23T17:23:16.487Z,4.63
2019-02-23T17:26:04.282Z,5.13
2019-02-23T17:28:47.556Z,9.40
2019-02-23T17:31:28.852Z,13.40
2019-02-23T17:34:10.099Z,20.07
2019-02-23T17:36:50.794Z,13.67
2019-02-23T17:39:30.588Z,10.20
2019-02-23T17:42:11.919Z,9.73
2019-02-23T17:45:00.313Z,9.27
2019-02-23T17:47:50.184Z,12.07
2019-02-23T17:50:30.859Z,9.50
2019-02-23T17:53:11.368Z,8.60
2019-02-23T17:55:51.916Z,9.30
2019-02-23T17:58:32.510Z,9.97
2019-02-23T18:01:13.767Z,10.23
2019-02-23T18:03:54.532Z,14.23
2019-02-23T18:06:35.218Z,15.43
2019-02-23T18:09:15.039Z,15.23
2019-02-23T18:11:55.993Z,13.67
2019-02-23T18:14:36.784Z,10.80
2019-02-23T18:17:17.661Z,8.80
2019-02-23T18:19:58.711Z,7.80
2019-02-23T18:22:39.554Z,8.20
2019-02-23T18:25:20.497Z,6.93
2019-02-23T18:28:00.939Z,6.63
2019-02-23T18:30:41.935Z,7.33
2019-02-23T18:33:22.625Z,6.23
2019-02-23T18:36:03.894Z,8.00
2019-02-23T18:38:44.790Z,10.43
2019-02-23T18:41:25.939Z,9.23
2019-02-23T18:44:06.851Z,7.93
2019-02-23T18:46:48.169Z,8.13
2019-02-23T18:49:29.210Z,8.03
2019-02-23T18:52:09.152Z,9.50
2019-02-23T18:54:50.055Z,13.17
2019-02-23T18:57:30.861Z,16.23
2019-02-23T19:00:11.831Z,14.17
2019-02-23T19:02:52.522Z,11.33
2019-02-23T19:05:33.687Z,8.17
2019-02-23T19:08:14.422Z,7.73
2019-02-23T19:10:55.834Z,7.37
2019-02-23T19:13:25.274Z,8.47
2019-02-23T19:15:54.540Z,7.20
2019-02-23T19:18:42.772Z,6.27
2019-02-23T19:21:30.970Z,6.20
2019-02-23T19:24:11.729Z,8.47
2019-02-23T19:26:51.440Z,8.93
2019-02-23T19:29:32.681Z,8.57
2019-02-23T19:35:01.562Z,8.03
2019-02-23T19:37:42.884Z,7.60
2019-02-23T19:40:23.587Z,7.87
2019-02-23T19:43:04.026Z,7.33
2019-02-23T19:45:44.780Z,7.23
2019-02-23T19:48:25.385Z,7.33
2019-02-23T19:51:06.119Z,7.77
2019-02-23T19:53:47.235Z,9.60
2019-02-23T19:56:28.714Z,9.83
2019-02-23T19:59:10.167Z,9.90
2019-02-23T20:01:51.480Z,8.80
2019-02-23T20:04:32.088Z,8.23
2019-02-23T20:07:12.845Z,9.87
2019-02-23T20:09:53.991Z,9.33
2019-02-23T20:12:34.730Z,9.33
2019-02-23T20:15:15.550Z,8.77
2019-02-23T20:17:56.981Z,7.87
2019-02-23T20:20:38.329Z,7.43
2019-02-23T20:23:18.912Z,6.93
2019-02-23T20:26:00.922Z,8.53
2019-02-23T20:28:41.635Z,9.10
2019-02-23T20:31:22.559Z,12.07
2019-02-23T20:33:51.843Z,11.70
2019-02-23T20:36:40.121Z,10.77
2019-02-23T20:39:21.150Z,9.57
2019-02-23T20:41:50.362Z,10.37
2019-02-23T20:44:38.646Z,8.80
2019-02-23T20:47:26.910Z,8.63
2019-02-23T20:50:08.253Z,9.07
2019-02-23T20:52:49.001Z,8.50
2019-02-23T20:55:30.515Z,9.10
2019-02-23T20:58:11.888Z,9.53
2019-02-23T21:00:52.436Z,8.90
2019-02-23T21:03:33.540Z,9.77
2019-02-23T21:06:14.251Z,10.37
2019-02-23T21:08:55.046Z,10.13
2019-02-23T21:11:36.222Z,10.60
2019-02-23T21:14:17.104Z,8.43
2019-02-23T21:16:57.822Z,8.53
2019-02-23T21:19:38.950Z,8.17
2019-02-23T21:22:19.858Z,8.17
2019-02-23T21:25:01.167Z,8.63
2019-02-23T21:27:41.986Z,7.93
2019-02-23T21:30:22.881Z,7.17
2019-02-23T21:33:04.083Z,7.90
2019-02-23T21:35:44.915Z,7.67
2019-02-23T21:38:26.072Z,7.27
2019-02-23T21:41:06.730Z,7.73
2019-02-23T21:43:47.729Z,8.60
2019-02-23T21:46:28.447Z,7.70
2019-02-23T21:49:09.793Z,7.60
2019-02-23T21:51:50.808Z,6.80
2019-02-23T21:54:32.187Z,6.40
2019-02-23T21:57:21.771Z,6.03
2019-02-23T21:59:55.850Z,7.10
2019-02-23T22:02:36.985Z,7.13
2019-02-23T22:07:56.838Z,7.70
2019-02-23T22:10:37.424Z,6.40
2019-02-23T22:13:18.929Z,7.20
2019-02-23T22:16:00.107Z,7.03
2019-02-23T22:18:41.173Z,7.57
2019-02-23T22:21:21.933Z,6.47
2019-02-23T22:24:02.610Z,7.23
2019-02-23T22:29:22.488Z,6.73
2019-02-23T22:32:03.387Z,7.90
2019-02-23T22:34:44.448Z,10.17
2019-02-23T22:37:25.341Z,8.93
2019-02-23T22:40:06.325Z,8.97
2019-02-23T22:42:47.043Z,11.00
2019-02-23T22:45:27.779Z,9.37
2019-02-23T22:48:08.714Z,8.03
2019-02-23T22:50:49.794Z,6.70
2019-02-23T22:53:30.627Z,7.37
2019-02-23T22:56:11.528Z,6.93
2019-02-23T22:58:52.854Z,8.57
2019-02-23T23:01:33.727Z,7.20
2019-02-23T23:04:13.598Z,6.03
2019-02-23T23:06:54.616Z,7.03
2019-02-23T23:09:35.078Z,6.47
2019-02-23T23:12:16.540Z,6.23
2019-02-23T23:14:57.438Z,6.00
2019-02-23T23:17:38.481Z,6.20
2019-02-23T23:20:19.150Z,6.20
2019-02-23T23:25:43.910Z,6.07
2019-02-23T23:28:24.649Z,6.77
2019-02-23T23:31:05.282Z,6.90
2019-02-23T23:33:46.602Z,6.50
2019-02-23T23:36:27.476Z,6.93
2019-02-23T23:39:08.112Z,6.93
2019-02-23T23:41:48.919Z,5.87
2019-02-23T23:44:29.642Z,6.37
2019-02-23T23:47:10.362Z,5.50
2019-02-23T23:49:51.325Z,5.60
2019-02-23T23:52:32.040Z,7.13
2019-02-23T23:55:13.342Z,7.27
2019-02-23T23:57:58.208Z,8.03
